PWSweather.com
Personal Weather Stations
Station Observations
EA5BZ
Nuevo Altabix, ElcheES

Nuevo AltabixElcheES

Lat: 38.276, Lon: -0.671

Elevation: 0

Station Type: Oregon Scientific WMR-300

http://meteoelche.es

High Low Average
Temperature 64.6°F18.1°C 53.1°F11.7°C 56.8°F13.8°C
Dew Point 44.0°F6.7°C 40.7°F4.8°C 42.1°F5.6°C
Winds 17.9 mph 28.8 kmh 5.8 mph 9.3 kmh 13.0 mph W20.9 kmh W
Wind Gusts 32.7 mph52.6 kmh 8.7 mph14.0 kmh 21.0 mph33.8 kmh
Humidity 66% 43% 58%
Pressure 30.41 in1029.8 mb 30.22 in1023.4 mb -
Precipitation 0.00 in0.0 mm - -
Hour Temp Dew Point Humidity Winds Wind Gusts Pressure Precip Precip Rate Daily Precip Total
12:00 AM 56.6°F13.7°C 40.7°F4.8°C 55% 12.5 mph W20.1 kmh W 23.5 mph37.8 kmh 30.22 in1023.4 mb 0.00 in0.0 mm 0.00 in0.0 mm 0.00 in0.0 mm
12:05 AM 56.7°F13.7°C 40.7°F4.8°C 55% 13.2 mph W21.2 kmh W 26.2 mph42.2 kmh 30.22 in1023.4 mb 0.00 in0.0 mm 0.00 in0.0 mm 0.00 in0.0 mm
12:10 AM 56.8°F13.8°C 40.8°F4.9°C 55% 15.2 mph W24.5 kmh W 23.7 mph38.1 kmh 30.22 in1023.4 mb 0.00 in0.0 mm 0.00 in0.0 mm 0.00 in0.0 mm
12:15 AM 56.8°F13.8°C 40.8°F4.9°C 55% 14.8 mph W23.8 kmh W 20.4 mph32.8 kmh 30.22 in1023.4 mb 0.00 in0.0 mm 0.00 in0.0 mm 0.00 in0.0 mm
12:20 AM 56.8°F13.8°C 40.8°F4.9°C 55% 13.6 mph W21.9 kmh W 21.9 mph35.2 kmh 30.22 in1023.4 mb 0.00 in0.0 mm 0.00 in0.0 mm 0.00 in0.0 mm
12:25 AM 56.8°F13.8°C 40.8°F4.9°C 55% 13.4 mph W21.6 kmh W 20.1 mph32.3 kmh 30.22 in1023.4 mb 0.00 in0.0 mm 0.00 in0.0 mm 0.00 in0.0 mm
12:30 AM 56.8°F13.8°C 40.8°F4.9°C 55% 12.5 mph WNW20.1 kmh WNW 18.6 mph29.9 kmh 30.22 in1023.4 mb 0.00 in0.0 mm 0.00 in0.0 mm 0.00 in0.0 mm
12:35 AM 56.7°F13.7°C 40.8°F4.9°C 55% 12.0 mph WNW19.3 kmh WNW 20.4 mph32.8 kmh 30.22 in1023.4 mb 0.00 in0.0 mm 0.00 in0.0 mm 0.00 in0.0 mm
12:40 AM 56.6°F13.7°C 41.1°F5.1°C 56% 10.3 mph W16.6 kmh W 19.0 mph30.6 kmh 30.23 in1023.7 mb 0.00 in0.0 mm 0.00 in0.0 mm 0.00 in0.0 mm
12:45 AM 56.5°F13.6°C 41.0°F5.0°C 56% 10.4 mph W16.7 kmh W 22.4 mph36.0 kmh 30.23 in1023.7 mb 0.00 in0.0 mm 0.00 in0.0 mm 0.00 in0.0 mm
12:50 AM 56.5°F13.6°C 41.0°F5.0°C 56% 10.7 mph WSW17.2 kmh WSW 18.1 mph29.1 kmh 30.23 in1023.7 mb 0.00 in0.0 mm 0.00 in0.0 mm 0.00 in0.0 mm
12:55 AM 56.3°F13.5°C 41.3°F5.2°C 57% 10.6 mph WSW17.1 kmh WSW 23.0 mph37.0 kmh 30.23 in1023.7 mb 0.00 in0.0 mm 0.00 in0.0 mm 0.00 in0.0 mm
01:00 AM 56.3°F13.5°C 41.3°F5.2°C 57% 10.3 mph W16.6 kmh W 19.2 mph30.9 kmh 30.23 in1023.7 mb 0.00 in0.0 mm 0.00 in0.0 mm 0.00 in0.0 mm
01:05 AM 56.1°F13.4°C 41.1°F5.1°C 57% 10.5 mph W16.9 kmh W 16.8 mph27.0 kmh 30.23 in1023.7 mb 0.00 in0.0 mm 0.00 in0.0 mm 0.00 in0.0 mm
01:10 AM 56.1°F13.4°C 41.3°F5.2°C 58% 11.2 mph WSW18.0 kmh WSW 14.8 mph23.8 kmh 30.23 in1023.7 mb 0.00 in0.0 mm 0.00 in0.0 mm 0.00 in0.0 mm
01:15 AM 56.0°F13.3°C 41.4°F5.2°C 58% 10.5 mph WSW16.9 kmh WSW 16.8 mph27.0 kmh 30.23 in1023.7 mb 0.00 in0.0 mm 0.00 in0.0 mm 0.00 in0.0 mm
01:20 AM 55.9°F13.3°C 41.4°F5.2°C 58% 8.5 mph WSW13.7 kmh WSW 18.1 mph29.1 kmh 30.23 in1023.7 mb 0.00 in0.0 mm 0.00 in0.0 mm 0.00 in0.0 mm
01:25 AM 55.9°F13.3°C 41.5°F5.3°C 58% 9.1 mph WSW14.6 kmh WSW 24.2 mph38.9 kmh 30.23 in1023.7 mb 0.00 in0.0 mm 0.00 in0.0 mm 0.00 in0.0 mm
01:30 AM 56.0°F13.3°C 41.9°F5.5°C 59% 10.7 mph WSW17.2 kmh WSW 24.2 mph38.9 kmh 30.23 in1023.7 mb 0.00 in0.0 mm 0.00 in0.0 mm 0.00 in0.0 mm
01:35 AM 56.1°F13.4°C 42.0°F5.6°C 59% 11.2 mph W18.0 kmh W 27.5 mph44.3 kmh 30.23 in1023.7 mb 0.00 in0.0 mm 0.00 in0.0 mm 0.00 in0.0 mm
01:40 AM 56.2°F13.4°C 41.9°F5.5°C 59% 12.5 mph W20.1 kmh W 24.8 mph39.9 kmh 30.23 in1023.7 mb 0.00 in0.0 mm 0.00 in0.0 mm 0.00 in0.0 mm
01:45 AM 56.3°F13.5°C 41.7°F5.4°C 58% 12.9 mph W20.8 kmh W 24.8 mph39.9 kmh 30.23 in1023.7 mb 0.00 in0.0 mm 0.00 in0.0 mm 0.00 in0.0 mm
01:50 AM 56.2°F13.4°C 41.8°F5.4°C 58% 14.1 mph W22.7 kmh W 27.5 mph44.3 kmh 30.23 in1023.7 mb 0.00 in0.0 mm 0.00 in0.0 mm 0.00 in0.0 mm
01:55 AM 56.1°F13.4°C 42.0°F5.6°C 59% 14.3 mph W23.0 kmh W 28.6 mph46.0 kmh 30.23 in1023.7 mb 0.00 in0.0 mm 0.00 in0.0 mm 0.00 in0.0 mm
02:00 AM 56.1°F13.4°C 42.0°F5.6°C 59% 14.8 mph W23.8 kmh W 25.7 mph41.4 kmh 30.22 in1023.4 mb 0.00 in0.0 mm 0.00 in0.0 mm 0.00 in0.0 mm
02:05 AM 55.9°F13.3°C 41.8°F5.4°C 59% 14.9 mph W24.0 kmh W 26.2 mph42.2 kmh 30.22 in1023.4 mb 0.00 in0.0 mm 0.00 in0.0 mm 0.00 in0.0 mm
02:10 AM 55.9°F13.3°C 41.8°F5.4°C 59% 15.2 mph W24.5 kmh W 22.6 mph36.4 kmh 30.22 in1023.4 mb 0.00 in0.0 mm 0.00 in0.0 mm 0.00 in0.0 mm
02:15 AM 55.9°F13.3°C 41.8°F5.4°C 59% 14.9 mph W24.0 kmh W 23.7 mph38.1 kmh 30.22 in1023.4 mb 0.00 in0.0 mm 0.00 in0.0 mm 0.00 in0.0 mm
02:20 AM 55.8°F13.2°C 41.7°F5.4°C 59% 14.1 mph W22.7 kmh W 26.4 mph42.5 kmh 30.22 in1023.4 mb 0.00 in0.0 mm 0.00 in0.0 mm 0.00 in0.0 mm
02:25 AM 55.8°F13.2°C 41.7°F5.4°C 59% 14.8 mph W23.8 kmh W 31.8 mph51.2 kmh 30.22 in1023.4 mb 0.00 in0.0 mm 0.00 in0.0 mm 0.00 in0.0 mm
02:30 AM 55.8°F13.2°C 41.7°F5.4°C 59% 16.8 mph W27.0 kmh W 24.8 mph39.9 kmh 30.22 in1023.4 mb 0.00 in0.0 mm 0.00 in0.0 mm 0.00 in0.0 mm
02:35 AM 55.7°F13.2°C 41.6°F5.3°C 59% 16.3 mph W26.2 kmh W 24.2 mph38.9 kmh 30.22 in1023.4 mb 0.00 in0.0 mm 0.00 in0.0 mm 0.00 in0.0 mm
02:40 AM 55.6°F13.1°C 41.5°F5.3°C 59% 14.8 mph W23.8 kmh W 28.0 mph45.1 kmh 30.23 in1023.7 mb 0.00 in0.0 mm 0.00 in0.0 mm 0.00 in0.0 mm
02:45 AM 55.6°F13.1°C 41.5°F5.3°C 59% 15.3 mph W24.6 kmh W 27.5 mph44.3 kmh 30.23 in1023.7 mb 0.00 in0.0 mm 0.00 in0.0 mm 0.00 in0.0 mm
02:50 AM 55.6°F13.1°C 41.5°F5.3°C 59% 17.0 mph W27.4 kmh W 24.2 mph38.9 kmh 30.23 in1023.7 mb 0.00 in0.0 mm 0.00 in0.0 mm 0.00 in0.0 mm
02:55 AM 55.6°F13.1°C 41.5°F5.3°C 59% 16.9 mph W27.2 kmh W 28.4 mph45.7 kmh 30.23 in1023.7 mb 0.00 in0.0 mm 0.00 in0.0 mm 0.00 in0.0 mm
03:00 AM 55.4°F13.0°C 41.4°F5.2°C 59% 16.8 mph W27.0 kmh W 23.5 mph37.8 kmh 30.23 in1023.7 mb 0.00 in0.0 mm 0.00 in0.0 mm 0.00 in0.0 mm
03:05 AM 55.4°F13.0°C 41.3°F5.2°C 59% 16.3 mph W26.2 kmh W 23.5 mph37.8 kmh 30.23 in1023.7 mb 0.00 in0.0 mm 0.00 in0.0 mm 0.00 in0.0 mm
03:10 AM 55.2°F12.9°C 41.2°F5.1°C 59% 14.8 mph W23.8 kmh W 20.8 mph33.5 kmh 30.23 in1023.7 mb 0.00 in0.0 mm 0.00 in0.0 mm 0.00 in0.0 mm
03:15 AM 55.2°F12.9°C 41.2°F5.1°C 59% 14.4 mph W23.2 kmh W 26.2 mph42.2 kmh 30.23 in1023.7 mb 0.00 in0.0 mm 0.00 in0.0 mm 0.00 in0.0 mm
03:20 AM 55.2°F12.9°C 41.4°F5.2°C 60% 13.4 mph W21.6 kmh W 23.0 mph37.0 kmh 30.23 in1023.7 mb 0.00 in0.0 mm 0.00 in0.0 mm 0.00 in0.0 mm
03:25 AM 55.2°F12.9°C 41.5°F5.3°C 60% 13.5 mph W21.7 kmh W 24.8 mph39.9 kmh 30.23 in1023.7 mb 0.00 in0.0 mm 0.00 in0.0 mm 0.00 in0.0 mm
03:30 AM 55.0°F12.8°C 41.4°F5.2°C 60% 13.6 mph WSW21.9 kmh WSW 22.4 mph36.0 kmh 30.24 in1024.0 mb 0.00 in0.0 mm 0.00 in0.0 mm 0.00 in0.0 mm
03:35 AM 55.0°F12.8°C 41.4°F5.2°C 60% 13.6 mph W21.9 kmh W 20.8 mph33.5 kmh 30.24 in1024.0 mb 0.00 in0.0 mm 0.00 in0.0 mm 0.00 in0.0 mm
03:40 AM 55.0°F12.8°C 41.4°F5.2°C 60% 13.4 mph W21.6 kmh W 22.4 mph36.0 kmh 30.24 in1024.0 mb 0.00 in0.0 mm 0.00 in0.0 mm 0.00 in0.0 mm
03:45 AM 55.0°F12.8°C 41.4°F5.2°C 60% 13.7 mph W22.0 kmh W 22.4 mph36.0 kmh 30.24 in1024.0 mb 0.00 in0.0 mm 0.00 in0.0 mm 0.00 in0.0 mm
03:50 AM 55.0°F12.8°C 41.3°F5.2°C 60% 14.5 mph WSW23.3 kmh WSW 21.9 mph35.2 kmh 30.24 in1024.0 mb 0.00 in0.0 mm 0.00 in0.0 mm 0.00 in0.0 mm
03:55 AM 54.9°F12.7°C 41.2°F5.1°C 60% 14.8 mph WSW23.8 kmh WSW 22.6 mph36.4 kmh 30.25 in1024.4 mb 0.00 in0.0 mm 0.00 in0.0 mm 0.00 in0.0 mm
04:00 AM 54.9°F12.7°C 41.2°F5.1°C 60% 15.7 mph WSW25.3 kmh WSW 25.3 mph40.7 kmh 30.25 in1024.4 mb 0.00 in0.0 mm 0.00 in0.0 mm 0.00 in0.0 mm
04:05 AM 54.9°F12.7°C 41.2°F5.1°C 60% 15.5 mph WSW24.9 kmh WSW 24.6 mph39.6 kmh 30.25 in1024.4 mb 0.00 in0.0 mm 0.00 in0.0 mm 0.00 in0.0 mm
04:10 AM 54.9°F12.7°C 41.3°F5.2°C 60% 15.2 mph W24.5 kmh W 25.7 mph41.4 kmh 30.25 in1024.4 mb 0.00 in0.0 mm 0.00 in0.0 mm 0.00 in0.0 mm
04:15 AM 55.0°F12.8°C 41.4°F5.2°C 60% 15.6 mph W25.1 kmh W 26.8 mph43.1 kmh 30.25 in1024.4 mb 0.00 in0.0 mm 0.00 in0.0 mm 0.00 in0.0 mm
04:20 AM 55.1°F12.8°C 41.5°F5.3°C 60% 16.8 mph W27.0 kmh W 24.6 mph39.6 kmh 30.25 in1024.4 mb 0.00 in0.0 mm 0.00 in0.0 mm 0.00 in0.0 mm
04:25 AM 55.1°F12.8°C 41.4°F5.2°C 60% 16.4 mph W26.4 kmh W 23.5 mph37.8 kmh 30.25 in1024.4 mb 0.00 in0.0 mm 0.00 in0.0 mm 0.00 in0.0 mm
04:30 AM 55.0°F12.8°C 41.4°F5.2°C 60% 15.2 mph W24.5 kmh W 26.2 mph42.2 kmh 30.25 in1024.4 mb 0.00 in0.0 mm 0.00 in0.0 mm 0.00 in0.0 mm
04:35 AM 55.0°F12.8°C 41.4°F5.2°C 60% 15.1 mph W24.3 kmh W 26.2 mph42.2 kmh 30.25 in1024.4 mb 0.00 in0.0 mm 0.00 in0.0 mm 0.00 in0.0 mm
04:40 AM 54.9°F12.7°C 41.3°F5.2°C 60% 14.8 mph W23.8 kmh W 25.3 mph40.7 kmh 30.24 in1024.0 mb 0.00 in0.0 mm 0.00 in0.0 mm 0.00 in0.0 mm
04:45 AM 54.9°F12.7°C 41.2°F5.1°C 60% 14.8 mph W23.8 kmh W 25.7 mph41.4 kmh 30.24 in1024.0 mb 0.00 in0.0 mm 0.00 in0.0 mm 0.00 in0.0 mm
04:50 AM 54.9°F12.7°C 41.5°F5.3°C 61% 14.8 mph W23.8 kmh W 24.8 mph39.9 kmh 30.24 in1024.0 mb 0.00 in0.0 mm 0.00 in0.0 mm 0.00 in0.0 mm
04:55 AM 54.8°F12.7°C 41.6°F5.3°C 61% 14.7 mph W23.7 kmh W 25.3 mph40.7 kmh 30.24 in1024.0 mb 0.00 in0.0 mm 0.00 in0.0 mm 0.00 in0.0 mm
05:00 AM 54.7°F12.6°C 41.5°F5.3°C 61% 14.5 mph W23.3 kmh W 22.4 mph36.0 kmh 30.24 in1024.0 mb 0.00 in0.0 mm 0.00 in0.0 mm 0.00 in0.0 mm
05:05 AM 54.6°F12.6°C 41.4°F5.2°C 61% 14.5 mph W23.3 kmh W 24.6 mph39.6 kmh 30.24 in1024.0 mb 0.00 in0.0 mm 0.00 in0.0 mm 0.00 in0.0 mm
05:10 AM 54.4°F12.4°C 41.3°F5.2°C 61% 14.5 mph W23.3 kmh W 21.3 mph34.3 kmh 30.24 in1024.0 mb 0.00 in0.0 mm 0.00 in0.0 mm 0.00 in0.0 mm
05:15 AM 54.2°F12.3°C 41.5°F5.3°C 62% 14.7 mph W23.7 kmh W 24.2 mph38.9 kmh 30.24 in1024.0 mb 0.00 in0.0 mm 0.00 in0.0 mm 0.00 in0.0 mm
05:20 AM 54.1°F12.3°C 41.4°F5.2°C 62% 15.2 mph WSW24.5 kmh WSW 25.3 mph40.7 kmh 30.24 in1024.0 mb 0.00 in0.0 mm 0.00 in0.0 mm 0.00 in0.0 mm
05:25 AM 54.1°F12.3°C 41.4°F5.2°C 62% 15.1 mph WSW24.3 kmh WSW 22.4 mph36.0 kmh 30.24 in1024.0 mb 0.00 in0.0 mm 0.00 in0.0 mm 0.00 in0.0 mm
05:30 AM 54.1°F12.3°C 41.4°F5.2°C 62% 14.8 mph WSW23.8 kmh WSW 23.0 mph37.0 kmh 30.24 in1024.0 mb 0.00 in0.0 mm 0.00 in0.0 mm 0.00 in0.0 mm
05:35 AM 54.1°F12.3°C 41.4°F5.2°C 62% 14.8 mph WSW23.8 kmh WSW 22.4 mph36.0 kmh 30.24 in1024.0 mb 0.00 in0.0 mm 0.00 in0.0 mm 0.00 in0.0 mm
05:40 AM 54.3°F12.4°C 41.4°F5.2°C 62% 14.8 mph W23.8 kmh W 20.8 mph33.5 kmh 30.24 in1024.0 mb 0.00 in0.0 mm 0.00 in0.0 mm 0.00 in0.0 mm
05:45 AM 54.3°F12.4°C 41.2°F5.1°C 61% 14.6 mph W23.5 kmh W 21.5 mph34.6 kmh 30.24 in1024.0 mb 0.00 in0.0 mm 0.00 in0.0 mm 0.00 in0.0 mm
05:50 AM 54.5°F12.5°C 41.3°F5.2°C 61% 14.1 mph W22.7 kmh W 18.6 mph29.9 kmh 30.24 in1024.0 mb 0.00 in0.0 mm 0.00 in0.0 mm 0.00 in0.0 mm
05:55 AM 54.5°F12.5°C 41.3°F5.2°C 61% 13.2 mph W21.2 kmh W 20.1 mph32.3 kmh 30.23 in1023.7 mb 0.00 in0.0 mm 0.00 in0.0 mm 0.00 in0.0 mm
06:00 AM 54.5°F12.5°C 41.3°F5.2°C 61% 10.7 mph W17.2 kmh W 17.4 mph28.0 kmh 30.23 in1023.7 mb 0.00 in0.0 mm 0.00 in0.0 mm 0.00 in0.0 mm
06:05 AM 54.5°F12.5°C 41.3°F5.2°C 61% 10.9 mph W17.5 kmh W 18.1 mph29.1 kmh 30.23 in1023.7 mb 0.00 in0.0 mm 0.00 in0.0 mm 0.00 in0.0 mm
06:10 AM 54.5°F12.5°C 41.3°F5.2°C 61% 11.2 mph W18.0 kmh W 19.0 mph30.6 kmh 30.23 in1023.7 mb 0.00 in0.0 mm 0.00 in0.0 mm 0.00 in0.0 mm
06:15 AM 54.3°F12.4°C 41.2°F5.1°C 61% 11.9 mph W19.2 kmh W 26.8 mph43.1 kmh 30.24 in1024.0 mb 0.00 in0.0 mm 0.00 in0.0 mm 0.00 in0.0 mm
06:20 AM 54.2°F12.3°C 41.4°F5.2°C 62% 14.1 mph WSW22.7 kmh WSW 25.7 mph41.4 kmh 30.24 in1024.0 mb 0.00 in0.0 mm 0.00 in0.0 mm 0.00 in0.0 mm
06:25 AM 54.1°F12.3°C 41.4°F5.2°C 62% 14.5 mph WSW23.3 kmh WSW 23.5 mph37.8 kmh 30.24 in1024.0 mb 0.00 in0.0 mm 0.00 in0.0 mm 0.00 in0.0 mm
06:30 AM 54.1°F12.3°C 41.4°F5.2°C 62% 15.9 mph W25.6 kmh W 26.2 mph42.2 kmh 30.24 in1024.0 mb 0.00 in0.0 mm 0.00 in0.0 mm 0.00 in0.0 mm
06:35 AM 54.3°F12.4°C 41.5°F5.3°C 62% 16.2 mph W26.1 kmh W 26.4 mph42.5 kmh 30.24 in1024.0 mb 0.00 in0.0 mm 0.00 in0.0 mm 0.00 in0.0 mm
06:40 AM 54.3°F12.4°C 41.6°F5.3°C 62% 17.0 mph W27.4 kmh W 26.4 mph42.5 kmh 30.25 in1024.4 mb 0.00 in0.0 mm 0.00 in0.0 mm 0.00 in0.0 mm
06:45 AM 54.3°F12.4°C 41.5°F5.3°C 62% 16.9 mph W27.2 kmh W 26.8 mph43.1 kmh 30.25 in1024.4 mb 0.00 in0.0 mm 0.00 in0.0 mm 0.00 in0.0 mm
06:50 AM 54.4°F12.4°C 41.2°F5.1°C 61% 16.8 mph W27.0 kmh W 23.7 mph38.1 kmh 30.25 in1024.4 mb 0.00 in0.0 mm 0.00 in0.0 mm 0.00 in0.0 mm
06:55 AM 54.6°F12.6°C 41.4°F5.2°C 61% 16.5 mph W26.6 kmh W 26.2 mph42.2 kmh 30.26 in1024.7 mb 0.00 in0.0 mm 0.00 in0.0 mm 0.00 in0.0 mm
07:00 AM 54.7°F12.6°C 41.5°F5.3°C 61% 15.7 mph W25.3 kmh W 22.4 mph36.0 kmh 30.26 in1024.7 mb 0.00 in0.0 mm 0.00 in0.0 mm 0.00 in0.0 mm
07:05 AM 54.7°F12.6°C 41.5°F5.3°C 61% 15.3 mph W24.6 kmh W 22.6 mph36.4 kmh 30.26 in1024.7 mb 0.00 in0.0 mm 0.00 in0.0 mm 0.00 in0.0 mm
07:10 AM 54.7°F12.6°C 41.5°F5.3°C 61% 14.1 mph W22.7 kmh W 22.4 mph36.0 kmh 30.26 in1024.7 mb 0.00 in0.0 mm 0.00 in0.0 mm 0.00 in0.0 mm
07:15 AM 54.7°F12.6°C 41.5°F5.3°C 61% 13.8 mph W22.2 kmh W 22.4 mph36.0 kmh 30.26 in1024.7 mb 0.00 in0.0 mm 0.00 in0.0 mm 0.00 in0.0 mm
07:20 AM 54.7°F12.6°C 41.5°F5.3°C 61% 13.0 mph W20.9 kmh W 23.7 mph38.1 kmh 30.26 in1024.7 mb 0.00 in0.0 mm 0.00 in0.0 mm 0.00 in0.0 mm
07:25 AM 54.7°F12.6°C 41.5°F5.3°C 61% 13.3 mph W21.4 kmh W 28.4 mph45.7 kmh 30.26 in1024.7 mb 0.00 in0.0 mm 0.00 in0.0 mm 0.00 in0.0 mm
07:30 AM 54.5°F12.5°C 41.3°F5.2°C 61% 14.1 mph W22.7 kmh W 28.4 mph45.7 kmh 30.26 in1024.7 mb 0.00 in0.0 mm 0.00 in0.0 mm 0.00 in0.0 mm
07:35 AM 54.3°F12.4°C 41.5°F5.3°C 62% 14.9 mph W24.0 kmh W 26.4 mph42.5 kmh 30.26 in1024.7 mb 0.00 in0.0 mm 0.00 in0.0 mm 0.00 in0.0 mm
07:40 AM 54.2°F12.3°C 41.5°F5.3°C 62% 17.4 mph W28.0 kmh W 29.5 mph47.5 kmh 30.26 in1024.7 mb 0.00 in0.0 mm 0.00 in0.0 mm 0.00 in0.0 mm
07:45 AM 54.1°F12.3°C 41.4°F5.2°C 62% 17.4 mph W28.0 kmh W 26.8 mph43.1 kmh 30.27 in1025.1 mb 0.00 in0.0 mm 0.00 in0.0 mm 0.00 in0.0 mm
07:50 AM 54.0°F12.2°C 41.6°F5.3°C 63% 17.4 mph W28.0 kmh W 28.4 mph45.7 kmh 30.27 in1025.1 mb 0.00 in0.0 mm 0.00 in0.0 mm 0.00 in0.0 mm
07:55 AM 54.0°F12.2°C 41.7°F5.4°C 63% 17.4 mph W28.0 kmh W 25.3 mph40.7 kmh 30.27 in1025.1 mb 0.00 in0.0 mm 0.00 in0.0 mm 0.00 in0.0 mm
08:00 AM 53.8°F12.1°C 41.5°F5.3°C 63% 17.4 mph W28.0 kmh W 29.8 mph48.0 kmh 30.27 in1025.1 mb 0.00 in0.0 mm 0.00 in0.0 mm 0.00 in0.0 mm
08:05 AM 53.8°F12.1°C 41.5°F5.3°C 63% 17.4 mph W28.0 kmh W 29.1 mph46.8 kmh 30.27 in1025.1 mb 0.00 in0.0 mm 0.00 in0.0 mm 0.00 in0.0 mm
08:10 AM 53.8°F12.1°C 41.5°F5.3°C 63% 17.4 mph W28.0 kmh W 26.4 mph42.5 kmh 30.27 in1025.1 mb 0.00 in0.0 mm 0.00 in0.0 mm 0.00 in0.0 mm
08:15 AM 53.5°F11.9°C 41.5°F5.3°C 64% 17.2 mph W27.7 kmh W 27.5 mph44.3 kmh 30.27 in1025.1 mb 0.00 in0.0 mm 0.00 in0.0 mm 0.00 in0.0 mm
08:20 AM 53.4°F11.9°C 41.6°F5.3°C 64% 16.3 mph W26.2 kmh W 27.5 mph44.3 kmh 30.27 in1025.1 mb 0.00 in0.0 mm 0.00 in0.0 mm 0.00 in0.0 mm
08:25 AM 53.4°F11.9°C 41.6°F5.3°C 64% 15.6 mph W25.1 kmh W 20.8 mph33.5 kmh 30.27 in1025.1 mb 0.00 in0.0 mm 0.00 in0.0 mm 0.00 in0.0 mm
08:30 AM 53.4°F11.9°C 41.6°F5.3°C 64% 13.6 mph W21.9 kmh W 26.2 mph42.2 kmh 30.27 in1025.1 mb 0.00 in0.0 mm 0.00 in0.0 mm 0.00 in0.0 mm
08:35 AM 53.4°F11.9°C 41.6°F5.3°C 64% 14.3 mph W23.0 kmh W 25.3 mph40.7 kmh 30.27 in1025.1 mb 0.00 in0.0 mm 0.00 in0.0 mm 0.00 in0.0 mm
08:40 AM 53.4°F11.9°C 41.6°F5.3°C 64% 16.3 mph W26.2 kmh W 24.8 mph39.9 kmh 30.27 in1025.1 mb 0.00 in0.0 mm 0.00 in0.0 mm 0.00 in0.0 mm
08:45 AM 53.4°F11.9°C 41.6°F5.3°C 64% 16.0 mph W25.7 kmh W 25.3 mph40.7 kmh 30.27 in1025.1 mb 0.00 in0.0 mm 0.00 in0.0 mm 0.00 in0.0 mm
08:50 AM 53.4°F11.9°C 41.6°F5.3°C 64% 15.2 mph W24.5 kmh W 32.7 mph52.6 kmh 30.27 in1025.1 mb 0.00 in0.0 mm 0.00 in0.0 mm 0.00 in0.0 mm
08:55 AM 53.3°F11.8°C 41.4°F5.2°C 64% 15.9 mph WSW25.6 kmh WSW 26.8 mph43.1 kmh 30.28 in1025.4 mb 0.00 in0.0 mm 0.00 in0.0 mm 0.00 in0.0 mm
09:00 AM 53.2°F11.8°C 41.4°F5.2°C 64% 17.9 mph WSW28.8 kmh WSW 26.8 mph43.1 kmh 30.29 in1025.7 mb 0.00 in0.0 mm 0.00 in0.0 mm 0.00 in0.0 mm
09:05 AM 53.2°F11.8°C 41.5°F5.3°C 64% 17.5 mph WSW28.2 kmh WSW 23.0 mph37.0 kmh 30.29 in1025.7 mb 0.00 in0.0 mm 0.00 in0.0 mm 0.00 in0.0 mm
09:10 AM 53.2°F11.8°C 41.8°F5.4°C 65% 16.3 mph W26.2 kmh W 28.4 mph45.7 kmh 30.29 in1025.7 mb 0.00 in0.0 mm 0.00 in0.0 mm 0.00 in0.0 mm
09:15 AM 53.2°F11.8°C 41.7°F5.4°C 65% 15.9 mph W25.6 kmh W 21.9 mph35.2 kmh 30.29 in1025.7 mb 0.00 in0.0 mm 0.00 in0.0 mm 0.00 in0.0 mm
09:20 AM 53.1°F11.7°C 41.6°F5.3°C 65% 14.8 mph W23.8 kmh W 24.2 mph38.9 kmh 30.29 in1025.7 mb 0.00 in0.0 mm 0.00 in0.0 mm 0.00 in0.0 mm
09:25 AM 53.1°F11.7°C 41.7°F5.4°C 65% 14.9 mph W24.0 kmh W 25.3 mph40.7 kmh 30.29 in1025.7 mb 0.00 in0.0 mm 0.00 in0.0 mm 0.00 in0.0 mm
09:30 AM 53.2°F11.8°C 41.8°F5.4°C 65% 15.2 mph W24.5 kmh W 27.5 mph44.3 kmh 30.30 in1026.1 mb 0.00 in0.0 mm 0.00 in0.0 mm 0.00 in0.0 mm
09:35 AM 53.3°F11.8°C 41.9°F5.5°C 65% 15.5 mph W24.9 kmh W 24.2 mph38.9 kmh 30.30 in1026.1 mb 0.00 in0.0 mm 0.00 in0.0 mm 0.00 in0.0 mm
09:40 AM 53.5°F11.9°C 41.6°F5.3°C 64% 16.3 mph W26.2 kmh W 29.8 mph48.0 kmh 30.30 in1026.1 mb 0.00 in0.0 mm 0.00 in0.0 mm 0.00 in0.0 mm
09:45 AM 53.8°F12.1°C 41.9°F5.5°C 64% 16.2 mph W26.1 kmh W 27.3 mph43.9 kmh 30.30 in1026.1 mb 0.00 in0.0 mm 0.00 in0.0 mm 0.00 in0.0 mm
09:50 AM 53.8°F12.1°C 41.9°F5.5°C 64% 15.9 mph WSW25.6 kmh WSW 27.5 mph44.3 kmh 30.30 in1026.1 mb 0.00 in0.0 mm 0.00 in0.0 mm 0.00 in0.0 mm
09:55 AM 54.0°F12.2°C 42.0°F5.6°C 64% 15.9 mph WSW25.6 kmh WSW 24.2 mph38.9 kmh 30.30 in1026.1 mb 0.00 in0.0 mm 0.00 in0.0 mm 0.00 in0.0 mm
10:00 AM 54.0°F12.2°C 41.7°F5.4°C 63% 15.9 mph WSW25.6 kmh WSW 29.5 mph47.5 kmh 30.30 in1026.1 mb 0.00 in0.0 mm 0.00 in0.0 mm 0.00 in0.0 mm
10:05 AM 54.0°F12.2°C 41.7°F5.4°C 63% 16.2 mph WSW26.1 kmh WSW 28.4 mph45.7 kmh 30.30 in1026.1 mb 0.00 in0.0 mm 0.00 in0.0 mm 0.00 in0.0 mm
10:10 AM 54.1°F12.3°C 41.8°F5.4°C 63% 17.0 mph WSW27.4 kmh WSW 28.6 mph46.0 kmh 30.31 in1026.4 mb 0.00 in0.0 mm 0.00 in0.0 mm 0.00 in0.0 mm
10:15 AM 54.1°F12.3°C 41.8°F5.4°C 63% 16.7 mph WSW26.9 kmh WSW 25.7 mph41.4 kmh 30.31 in1026.4 mb 0.00 in0.0 mm 0.00 in0.0 mm 0.00 in0.0 mm
10:20 AM 54.1°F12.3°C 41.8°F5.4°C 63% 15.9 mph WSW25.6 kmh WSW 28.0 mph45.1 kmh 30.31 in1026.4 mb 0.00 in0.0 mm 0.00 in0.0 mm 0.00 in0.0 mm
10:25 AM 54.3°F12.4°C 42.0°F5.6°C 63% 15.7 mph WSW25.3 kmh WSW 26.4 mph42.5 kmh 30.31 in1026.4 mb 0.00 in0.0 mm 0.00 in0.0 mm 0.00 in0.0 mm
10:30 AM 54.4°F12.4°C 41.9°F5.5°C 62% 15.2 mph W24.5 kmh W 21.5 mph34.6 kmh 30.31 in1026.4 mb 0.00 in0.0 mm 0.00 in0.0 mm 0.00 in0.0 mm
10:35 AM 54.7°F12.6°C 42.0°F5.6°C 62% 15.0 mph W24.1 kmh W 28.6 mph46.0 kmh 30.31 in1026.4 mb 0.00 in0.0 mm 0.00 in0.0 mm 0.00 in0.0 mm
10:40 AM 54.9°F12.7°C 42.1°F5.6°C 62% 14.5 mph W23.3 kmh W 20.8 mph33.5 kmh 30.32 in1026.8 mb 0.00 in0.0 mm 0.00 in0.0 mm 0.00 in0.0 mm
10:45 AM 54.9°F12.7°C 42.2°F5.7°C 62% 14.0 mph W22.5 kmh W 23.7 mph38.1 kmh 30.32 in1026.8 mb 0.00 in0.0 mm 0.00 in0.0 mm 0.00 in0.0 mm
10:50 AM 55.1°F12.8°C 42.0°F5.6°C 61% 12.5 mph W20.1 kmh W 27.3 mph43.9 kmh 30.32 in1026.8 mb 0.00 in0.0 mm 0.00 in0.0 mm 0.00 in0.0 mm
10:55 AM 55.2°F12.9°C 42.0°F5.6°C 61% 13.4 mph W21.6 kmh W 28.4 mph45.7 kmh 30.32 in1026.8 mb 0.00 in0.0 mm 0.00 in0.0 mm 0.00 in0.0 mm
11:00 AM 55.2°F12.9°C 42.0°F5.6°C 61% 15.9 mph WSW25.6 kmh WSW 24.6 mph39.6 kmh 30.32 in1026.8 mb 0.00 in0.0 mm 0.00 in0.0 mm 0.00 in0.0 mm
11:05 AM 55.3°F12.9°C 42.1°F5.6°C 61% 15.9 mph WSW25.6 kmh WSW 23.7 mph38.1 kmh 30.32 in1026.8 mb 0.00 in0.0 mm 0.00 in0.0 mm 0.00 in0.0 mm
11:10 AM 55.3°F12.9°C 42.1°F5.6°C 61% 15.9 mph WSW25.6 kmh WSW 24.8 mph39.9 kmh 30.31 in1026.4 mb 0.00 in0.0 mm 0.00 in0.0 mm 0.00 in0.0 mm
11:15 AM 55.4°F13.0°C 42.4°F5.8°C 62% 15.8 mph WSW25.4 kmh WSW 25.3 mph40.7 kmh 30.31 in1026.4 mb 0.00 in0.0 mm 0.00 in0.0 mm 0.00 in0.0 mm
11:20 AM 55.4°F13.0°C 42.6°F5.9°C 62% 15.7 mph WSW25.3 kmh WSW 26.2 mph42.2 kmh 30.31 in1026.4 mb 0.00 in0.0 mm 0.00 in0.0 mm 0.00 in0.0 mm
11:25 AM 55.4°F13.0°C 42.6°F5.9°C 62% 15.7 mph WSW25.3 kmh WSW 22.4 mph36.0 kmh 30.31 in1026.4 mb 0.00 in0.0 mm 0.00 in0.0 mm 0.00 in0.0 mm
11:30 AM 55.4°F13.0°C 42.6°F5.9°C 62% 15.7 mph WSW25.3 kmh WSW 24.6 mph39.6 kmh 30.31 in1026.4 mb 0.00 in0.0 mm 0.00 in0.0 mm 0.00 in0.0 mm
11:35 AM 55.4°F13.0°C 42.6°F5.9°C 62% 15.4 mph WSW24.8 kmh WSW 22.4 mph36.0 kmh 30.31 in1026.4 mb 0.00 in0.0 mm 0.00 in0.0 mm 0.00 in0.0 mm
11:40 AM 55.5°F13.1°C 42.7°F5.9°C 62% 14.5 mph WSW23.3 kmh WSW 21.3 mph34.3 kmh 30.30 in1026.1 mb 0.00 in0.0 mm 0.00 in0.0 mm 0.00 in0.0 mm
11:45 AM 55.6°F13.1°C 42.8°F6.0°C 62% 14.1 mph W22.7 kmh W 23.5 mph37.8 kmh 30.30 in1026.1 mb 0.00 in0.0 mm 0.00 in0.0 mm 0.00 in0.0 mm
11:50 AM 55.7°F13.2°C 42.7°F5.9°C 62% 13.0 mph W20.9 kmh W 24.6 mph39.6 kmh 30.30 in1026.1 mb 0.00 in0.0 mm 0.00 in0.0 mm 0.00 in0.0 mm
11:55 AM 55.8°F13.2°C 42.5°F5.8°C 61% 13.7 mph W22.0 kmh W 25.3 mph40.7 kmh 30.30 in1026.1 mb 0.00 in0.0 mm 0.00 in0.0 mm 0.00 in0.0 mm
12:00 PM 55.9°F13.3°C 42.6°F5.9°C 61% 15.9 mph WSW25.6 kmh WSW 28.4 mph45.7 kmh 30.30 in1026.1 mb 0.00 in0.0 mm 0.00 in0.0 mm 0.00 in0.0 mm
12:05 PM 56.0°F13.3°C 42.7°F5.9°C 61% 15.7 mph WSW25.3 kmh WSW 28.0 mph45.1 kmh 30.30 in1026.1 mb 0.00 in0.0 mm 0.00 in0.0 mm 0.00 in0.0 mm
12:10 PM 56.1°F13.4°C 42.8°F6.0°C 61% 15.2 mph W24.5 kmh W 20.1 mph32.3 kmh 30.29 in1025.7 mb 0.00 in0.0 mm 0.00 in0.0 mm 0.00 in0.0 mm
12:15 PM 56.1°F13.4°C 42.5°F5.8°C 60% 14.8 mph W23.8 kmh W 24.6 mph39.6 kmh 30.29 in1025.7 mb 0.00 in0.0 mm 0.00 in0.0 mm 0.00 in0.0 mm
12:20 PM 56.3°F13.5°C 42.5°F5.8°C 60% 13.4 mph W21.6 kmh W 24.8 mph39.9 kmh 30.29 in1025.7 mb 0.00 in0.0 mm 0.00 in0.0 mm 0.00 in0.0 mm
12:25 PM 56.5°F13.6°C 42.8°F6.0°C 60% 14.0 mph W22.5 kmh W 28.0 mph45.1 kmh 30.29 in1025.7 mb 0.00 in0.0 mm 0.00 in0.0 mm 0.00 in0.0 mm
12:30 PM 56.7°F13.7°C 42.9°F6.1°C 60% 15.7 mph W25.3 kmh W 28.6 mph46.0 kmh 30.29 in1025.7 mb 0.00 in0.0 mm 0.00 in0.0 mm 0.00 in0.0 mm
12:35 PM 56.7°F13.7°C 42.9°F6.1°C 60% 15.8 mph W25.4 kmh W 28.0 mph45.1 kmh 30.29 in1025.7 mb 0.00 in0.0 mm 0.00 in0.0 mm 0.00 in0.0 mm
12:40 PM 56.8°F13.8°C 43.1°F6.2°C 60% 16.3 mph W26.2 kmh W 24.8 mph39.9 kmh 30.28 in1025.4 mb 0.00 in0.0 mm 0.00 in0.0 mm 0.00 in0.0 mm
12:45 PM 57.2°F14.0°C 43.4°F6.3°C 60% 15.6 mph W25.1 kmh W 23.0 mph37.0 kmh 30.28 in1025.4 mb 0.00 in0.0 mm 0.00 in0.0 mm 0.00 in0.0 mm
12:50 PM 57.8°F14.3°C 43.5°F6.4°C 59% 13.6 mph W21.9 kmh W 23.7 mph38.1 kmh 30.28 in1025.4 mb 0.00 in0.0 mm 0.00 in0.0 mm 0.00 in0.0 mm
12:55 PM 58.3°F14.6°C 43.6°F6.4°C 58% 14.0 mph W22.5 kmh W 26.8 mph43.1 kmh 30.27 in1025.1 mb 0.00 in0.0 mm 0.00 in0.0 mm 0.00 in0.0 mm
01:00 PM 58.5°F14.7°C 43.6°F6.4°C 58% 15.2 mph W24.5 kmh W 26.4 mph42.5 kmh 30.27 in1025.1 mb 0.00 in0.0 mm 0.00 in0.0 mm 0.00 in0.0 mm
01:05 PM 58.8°F14.9°C 43.6°F6.4°C 57% 14.8 mph W23.8 kmh W 20.1 mph32.3 kmh 30.27 in1025.1 mb 0.00 in0.0 mm 0.00 in0.0 mm 0.00 in0.0 mm
01:10 PM 59.3°F15.2°C 43.9°F6.6°C 57% 13.6 mph W21.9 kmh W 24.8 mph39.9 kmh 30.27 in1025.1 mb 0.00 in0.0 mm 0.00 in0.0 mm 0.00 in0.0 mm
01:15 PM 59.7°F15.4°C 43.8°F6.6°C 56% 13.8 mph W22.2 kmh W 23.0 mph37.0 kmh 30.27 in1025.1 mb 0.00 in0.0 mm 0.00 in0.0 mm 0.00 in0.0 mm
01:20 PM 60.1°F15.6°C 43.8°F6.6°C 55% 14.1 mph W22.7 kmh W 27.5 mph44.3 kmh 30.27 in1025.1 mb 0.00 in0.0 mm 0.00 in0.0 mm 0.00 in0.0 mm
01:25 PM 60.3°F15.7°C 43.9°F6.6°C 55% 13.9 mph W22.4 kmh W 24.8 mph39.9 kmh 30.27 in1025.1 mb 0.00 in0.0 mm 0.00 in0.0 mm 0.00 in0.0 mm
01:30 PM 60.6°F15.9°C 43.9°F6.6°C 54% 13.4 mph W21.6 kmh W 26.8 mph43.1 kmh 30.27 in1025.1 mb 0.00 in0.0 mm 0.00 in0.0 mm 0.00 in0.0 mm
01:35 PM 60.8°F16.0°C 43.7°F6.5°C 53% 14.2 mph W22.9 kmh W 27.3 mph43.9 kmh 30.27 in1025.1 mb 0.00 in0.0 mm 0.00 in0.0 mm 0.00 in0.0 mm
01:40 PM 60.9°F16.1°C 43.7°F6.5°C 53% 16.3 mph W26.2 kmh W 25.7 mph41.4 kmh 30.27 in1025.1 mb 0.00 in0.0 mm 0.00 in0.0 mm 0.00 in0.0 mm
01:45 PM 61.1°F16.2°C 43.8°F6.6°C 53% 15.9 mph W25.6 kmh W 21.5 mph34.6 kmh 30.27 in1025.1 mb 0.00 in0.0 mm 0.00 in0.0 mm 0.00 in0.0 mm
01:50 PM 61.4°F16.3°C 44.0°F6.7°C 53% 14.5 mph W23.3 kmh W 24.2 mph38.9 kmh 30.27 in1025.1 mb 0.00 in0.0 mm 0.00 in0.0 mm 0.00 in0.0 mm
01:55 PM 61.8°F16.6°C 43.8°F6.6°C 52% 14.3 mph W23.0 kmh W 26.2 mph42.2 kmh 30.26 in1024.7 mb 0.00 in0.0 mm 0.00 in0.0 mm 0.00 in0.0 mm
02:00 PM 61.9°F16.6°C 43.6°F6.4°C 51% 13.4 mph W21.6 kmh W 26.8 mph43.1 kmh 30.26 in1024.7 mb 0.00 in0.0 mm 0.00 in0.0 mm 0.00 in0.0 mm
02:05 PM 62.0°F16.7°C 43.6°F6.4°C 51% 14.0 mph W22.5 kmh W 26.4 mph42.5 kmh 30.26 in1024.7 mb 0.00 in0.0 mm 0.00 in0.0 mm 0.00 in0.0 mm
02:10 PM 62.1°F16.7°C 43.5°F6.4°C 50% 15.9 mph W25.6 kmh W 22.6 mph36.4 kmh 30.26 in1024.7 mb 0.00 in0.0 mm 0.00 in0.0 mm 0.00 in0.0 mm
02:15 PM 62.3°F16.8°C 43.4°F6.3°C 50% 15.8 mph W25.4 kmh W 24.6 mph39.6 kmh 30.26 in1024.7 mb 0.00 in0.0 mm 0.00 in0.0 mm 0.00 in0.0 mm
02:20 PM 62.4°F16.9°C 43.5°F6.4°C 50% 15.7 mph WNW25.3 kmh WNW 17.9 mph28.8 kmh 30.26 in1024.7 mb 0.00 in0.0 mm 0.00 in0.0 mm 0.00 in0.0 mm
02:25 PM 62.6°F17.0°C 43.3°F6.3°C 49% 15.1 mph WNW24.3 kmh WNW 19.0 mph30.6 kmh 30.25 in1024.4 mb 0.00 in0.0 mm 0.00 in0.0 mm 0.00 in0.0 mm
02:30 PM 62.9°F17.2°C 42.9°F6.1°C 48% 13.4 mph W21.6 kmh W 22.4 mph36.0 kmh 30.25 in1024.4 mb 0.00 in0.0 mm 0.00 in0.0 mm 0.00 in0.0 mm
02:35 PM 63.1°F17.3°C 43.1°F6.2°C 48% 13.5 mph W21.7 kmh W 21.3 mph34.3 kmh 30.25 in1024.4 mb 0.00 in0.0 mm 0.00 in0.0 mm 0.00 in0.0 mm
02:40 PM 63.3°F17.4°C 43.2°F6.2°C 48% 13.6 mph W21.9 kmh W 21.5 mph34.6 kmh 30.25 in1024.4 mb 0.00 in0.0 mm 0.00 in0.0 mm 0.00 in0.0 mm
02:45 PM 63.5°F17.5°C 43.0°F6.1°C 47% 13.0 mph W20.9 kmh W 13.6 mph21.9 kmh 30.25 in1024.4 mb 0.00 in0.0 mm 0.00 in0.0 mm 0.00 in0.0 mm
02:50 PM 63.8°F17.7°C 42.5°F5.8°C 46% 11.2 mph W18.0 kmh W 13.6 mph21.9 kmh 30.25 in1024.4 mb 0.00 in0.0 mm 0.00 in0.0 mm 0.00 in0.0 mm
02:55 PM 64.1°F17.8°C 42.3°F5.7°C 45% 10.5 mph W16.9 kmh W 14.1 mph22.7 kmh 30.25 in1024.4 mb 0.00 in0.0 mm 0.00 in0.0 mm 0.00 in0.0 mm
03:00 PM 64.2°F17.9°C 42.3°F5.7°C 45% 8.5 mph W13.7 kmh W 16.8 mph27.0 kmh 30.25 in1024.4 mb 0.00 in0.0 mm 0.00 in0.0 mm 0.00 in0.0 mm
03:05 PM 64.3°F17.9°C 42.3°F5.7°C 45% 9.1 mph WSW14.6 kmh WSW 17.0 mph27.4 kmh 30.25 in1024.4 mb 0.00 in0.0 mm 0.00 in0.0 mm 0.00 in0.0 mm
03:10 PM 64.2°F17.9°C 42.4°F5.8°C 45% 10.7 mph WSW17.2 kmh WSW 12.5 mph20.1 kmh 30.25 in1024.4 mb 0.00 in0.0 mm 0.00 in0.0 mm 0.00 in0.0 mm
03:15 PM 64.3°F17.9°C 42.3°F5.7°C 45% 10.2 mph WSW16.4 kmh WSW 14.5 mph23.3 kmh 30.25 in1024.4 mb 0.00 in0.0 mm 0.00 in0.0 mm 0.00 in0.0 mm
03:20 PM 64.5°F18.1°C 42.1°F5.6°C 44% 8.7 mph W14.0 kmh W 19.7 mph31.7 kmh 30.25 in1024.4 mb 0.00 in0.0 mm 0.00 in0.0 mm 0.00 in0.0 mm
03:25 PM 64.5°F18.1°C 41.6°F5.3°C 43% 9.3 mph W15.0 kmh W 17.0 mph27.4 kmh 30.26 in1024.7 mb 0.00 in0.0 mm 0.00 in0.0 mm 0.00 in0.0 mm
03:30 PM 64.6°F18.1°C 42.2°F5.7°C 44% 11.2 mph W18.0 kmh W 17.9 mph28.8 kmh 30.26 in1024.7 mb 0.00 in0.0 mm 0.00 in0.0 mm 0.00 in0.0 mm
03:35 PM 64.6°F18.1°C 41.9°F5.5°C 44% 11.5 mph W18.5 kmh W 20.1 mph32.3 kmh 30.26 in1024.7 mb 0.00 in0.0 mm 0.00 in0.0 mm 0.00 in0.0 mm
03:40 PM 64.6°F18.1°C 41.6°F5.3°C 43% 12.5 mph W20.1 kmh W 19.2 mph30.9 kmh 30.26 in1024.7 mb 0.00 in0.0 mm 0.00 in0.0 mm 0.00 in0.0 mm
03:45 PM 64.6°F18.1°C 42.2°F5.7°C 44% 12.4 mph W20.0 kmh W 19.0 mph30.6 kmh 30.26 in1024.7 mb 0.00 in0.0 mm 0.00 in0.0 mm 0.00 in0.0 mm
03:50 PM 64.6°F18.1°C 42.2°F5.7°C 44% 11.9 mph W19.2 kmh W 19.0 mph30.6 kmh 30.26 in1024.7 mb 0.00 in0.0 mm 0.00 in0.0 mm 0.00 in0.0 mm
03:55 PM 64.6°F18.1°C 42.7°F5.9°C 45% 11.6 mph W18.7 kmh W 19.0 mph30.6 kmh 30.26 in1024.7 mb 0.00 in0.0 mm 0.00 in0.0 mm 0.00 in0.0 mm
04:00 PM 64.4°F18.0°C 42.6°F5.9°C 45% 10.7 mph W17.2 kmh W 19.2 mph30.9 kmh 30.27 in1025.1 mb 0.00 in0.0 mm 0.00 in0.0 mm 0.00 in0.0 mm
04:05 PM 64.2°F17.9°C 42.4°F5.8°C 45% 11.2 mph W18.0 kmh W 20.4 mph32.8 kmh 30.27 in1025.1 mb 0.00 in0.0 mm 0.00 in0.0 mm 0.00 in0.0 mm
04:10 PM 64.2°F17.9°C 42.4°F5.8°C 45% 12.5 mph W20.1 kmh W 18.1 mph29.1 kmh 30.27 in1025.1 mb 0.00 in0.0 mm 0.00 in0.0 mm 0.00 in0.0 mm
04:15 PM 64.3°F17.9°C 42.5°F5.8°C 45% 12.4 mph W20.0 kmh W 20.1 mph32.3 kmh 30.27 in1025.1 mb 0.00 in0.0 mm 0.00 in0.0 mm 0.00 in0.0 mm
04:20 PM 64.3°F17.9°C 42.5°F5.8°C 45% 11.9 mph W19.2 kmh W 20.4 mph32.8 kmh 30.27 in1025.1 mb 0.00 in0.0 mm 0.00 in0.0 mm 0.00 in0.0 mm
04:25 PM 64.2°F17.9°C 42.4°F5.8°C 45% 11.5 mph W18.5 kmh W 14.5 mph23.3 kmh 30.27 in1025.1 mb 0.00 in0.0 mm 0.00 in0.0 mm 0.00 in0.0 mm
04:30 PM 64.3°F17.9°C 42.5°F5.8°C 45% 10.3 mph WSW16.6 kmh WSW 16.3 mph26.2 kmh 30.27 in1025.1 mb 0.00 in0.0 mm 0.00 in0.0 mm 0.00 in0.0 mm
04:35 PM 64.2°F17.9°C 42.4°F5.8°C 45% 10.1 mph WSW16.3 kmh WSW 19.2 mph30.9 kmh 30.27 in1025.1 mb 0.00 in0.0 mm 0.00 in0.0 mm 0.00 in0.0 mm
04:40 PM 64.1°F17.8°C 42.3°F5.7°C 45% 9.6 mph WSW15.4 kmh WSW 17.9 mph28.8 kmh 30.28 in1025.4 mb 0.00 in0.0 mm 0.00 in0.0 mm 0.00 in0.0 mm
04:45 PM 64.0°F17.8°C 42.5°F5.8°C 45% 10.1 mph WSW16.3 kmh WSW 15.2 mph24.5 kmh 30.28 in1025.4 mb 0.00 in0.0 mm 0.00 in0.0 mm 0.00 in0.0 mm
04:50 PM 64.0°F17.8°C 42.3°F5.7°C 45% 11.4 mph W18.3 kmh W 14.8 mph23.8 kmh 30.28 in1025.4 mb 0.00 in0.0 mm 0.00 in0.0 mm 0.00 in0.0 mm
04:55 PM 64.0°F17.8°C 42.3°F5.7°C 45% 10.8 mph WSW17.4 kmh WSW 14.5 mph23.3 kmh 30.28 in1025.4 mb 0.00 in0.0 mm 0.00 in0.0 mm 0.00 in0.0 mm
05:00 PM 64.0°F17.8°C 42.5°F5.8°C 46% 9.2 mph WSW14.8 kmh WSW 13.4 mph21.6 kmh 30.28 in1025.4 mb 0.00 in0.0 mm 0.00 in0.0 mm 0.00 in0.0 mm
05:05 PM 63.9°F17.7°C 42.7°F5.9°C 46% 9.0 mph WSW14.5 kmh WSW 13.4 mph21.6 kmh 30.28 in1025.4 mb 0.00 in0.0 mm 0.00 in0.0 mm 0.00 in0.0 mm
05:10 PM 63.7°F17.6°C 42.5°F5.8°C 46% 8.5 mph WSW13.7 kmh WSW 15.2 mph24.5 kmh 30.29 in1025.7 mb 0.00 in0.0 mm 0.00 in0.0 mm 0.00 in0.0 mm
05:15 PM 63.4°F17.4°C 42.4°F5.8°C 46% 8.7 mph WSW14.0 kmh WSW 15.9 mph25.6 kmh 30.29 in1025.7 mb 0.00 in0.0 mm 0.00 in0.0 mm 0.00 in0.0 mm
05:20 PM 63.2°F17.3°C 42.6°F5.9°C 47% 9.2 mph WSW14.8 kmh WSW 17.0 mph27.4 kmh 30.29 in1025.7 mb 0.00 in0.0 mm 0.00 in0.0 mm 0.00 in0.0 mm
05:25 PM 62.8°F17.1°C 42.8°F6.0°C 48% 9.7 mph WSW15.6 kmh WSW 18.1 mph29.1 kmh 30.30 in1026.1 mb 0.00 in0.0 mm 0.00 in0.0 mm 0.00 in0.0 mm
05:30 PM 62.5°F16.9°C 42.5°F5.8°C 48% 11.2 mph WSW18.0 kmh WSW 16.8 mph27.0 kmh 30.30 in1026.1 mb 0.00 in0.0 mm 0.00 in0.0 mm 0.00 in0.0 mm
05:35 PM 62.2°F16.8°C 42.5°F5.8°C 49% 11.0 mph WSW17.7 kmh WSW 19.2 mph30.9 kmh 30.30 in1026.1 mb 0.00 in0.0 mm 0.00 in0.0 mm 0.00 in0.0 mm
05:40 PM 61.9°F16.6°C 42.5°F5.8°C 49% 10.3 mph WSW16.6 kmh WSW 13.6 mph21.9 kmh 30.30 in1026.1 mb 0.00 in0.0 mm 0.00 in0.0 mm 0.00 in0.0 mm
05:45 PM 61.5°F16.4°C 42.6°F5.9°C 50% 10.0 mph W16.1 kmh W 17.0 mph27.4 kmh 30.31 in1026.4 mb 0.00 in0.0 mm 0.00 in0.0 mm 0.00 in0.0 mm
05:50 PM 61.1°F16.2°C 42.7°F5.9°C 51% 9.2 mph W14.8 kmh W 15.7 mph25.3 kmh 30.31 in1026.4 mb 0.00 in0.0 mm 0.00 in0.0 mm 0.00 in0.0 mm
05:55 PM 60.7°F15.9°C 42.7°F5.9°C 51% 9.5 mph W15.3 kmh W 19.2 mph30.9 kmh 30.31 in1026.4 mb 0.00 in0.0 mm 0.00 in0.0 mm 0.00 in0.0 mm
06:00 PM 60.4°F15.8°C 42.7°F5.9°C 52% 10.3 mph W16.6 kmh W 20.8 mph33.5 kmh 30.31 in1026.4 mb 0.00 in0.0 mm 0.00 in0.0 mm 0.00 in0.0 mm
06:05 PM 60.0°F15.6°C 42.8°F6.0°C 53% 10.8 mph W17.4 kmh W 21.3 mph34.3 kmh 30.31 in1026.4 mb 0.00 in0.0 mm 0.00 in0.0 mm 0.00 in0.0 mm
06:10 PM 59.7°F15.4°C 42.6°F5.9°C 53% 12.3 mph W19.8 kmh W 19.2 mph30.9 kmh 30.32 in1026.8 mb 0.00 in0.0 mm 0.00 in0.0 mm 0.00 in0.0 mm
06:15 PM 59.5°F15.3°C 42.8°F6.0°C 54% 11.8 mph W19.0 kmh W 16.8 mph27.0 kmh 30.32 in1026.8 mb 0.00 in0.0 mm 0.00 in0.0 mm 0.00 in0.0 mm
06:20 PM 59.2°F15.1°C 42.6°F5.9°C 54% 10.3 mph WNW16.6 kmh WNW 19.2 mph30.9 kmh 30.32 in1026.8 mb 0.00 in0.0 mm 0.00 in0.0 mm 0.00 in0.0 mm
06:25 PM 58.9°F14.9°C 42.6°F5.9°C 55% 10.7 mph WNW17.2 kmh WNW 20.1 mph32.3 kmh 30.32 in1026.8 mb 0.00 in0.0 mm 0.00 in0.0 mm 0.00 in0.0 mm
06:30 PM 58.7°F14.8°C 42.6°F5.9°C 55% 11.9 mph WNW19.2 kmh WNW 20.8 mph33.5 kmh 30.32 in1026.8 mb 0.00 in0.0 mm 0.00 in0.0 mm 0.00 in0.0 mm
06:35 PM 58.5°F14.7°C 42.4°F5.8°C 55% 11.9 mph WNW19.2 kmh WNW 20.8 mph33.5 kmh 30.32 in1026.8 mb 0.00 in0.0 mm 0.00 in0.0 mm 0.00 in0.0 mm
06:40 PM 58.3°F14.6°C 42.7°F5.9°C 56% 11.9 mph NW19.2 kmh NW 17.4 mph28.0 kmh 30.33 in1027.1 mb 0.00 in0.0 mm 0.00 in0.0 mm 0.00 in0.0 mm
06:45 PM 58.0°F14.4°C 42.4°F5.8°C 56% 11.7 mph NW18.8 kmh NW 17.4 mph28.0 kmh 30.33 in1027.1 mb 0.00 in0.0 mm 0.00 in0.0 mm 0.00 in0.0 mm
06:50 PM 57.8°F14.3°C 42.5°F5.8°C 57% 11.4 mph NW18.3 kmh NW 15.7 mph25.3 kmh 30.33 in1027.1 mb 0.00 in0.0 mm 0.00 in0.0 mm 0.00 in0.0 mm
06:55 PM 57.6°F14.2°C 42.5°F5.8°C 57% 11.0 mph NW17.7 kmh NW 15.9 mph25.6 kmh 30.34 in1027.4 mb 0.00 in0.0 mm 0.00 in0.0 mm 0.00 in0.0 mm
07:00 PM 57.4°F14.1°C 42.6°F5.9°C 58% 9.6 mph WNW15.4 kmh WNW 14.8 mph23.8 kmh 30.34 in1027.4 mb 0.00 in0.0 mm 0.00 in0.0 mm 0.00 in0.0 mm
07:05 PM 57.2°F14.0°C 42.6°F5.9°C 58% 9.4 mph WNW15.1 kmh WNW 17.0 mph27.4 kmh 30.34 in1027.4 mb 0.00 in0.0 mm 0.00 in0.0 mm 0.00 in0.0 mm
07:10 PM 57.0°F13.9°C 42.6°F5.9°C 58% 8.7 mph WNW14.0 kmh WNW 12.3 mph19.8 kmh 30.34 in1027.4 mb 0.00 in0.0 mm 0.00 in0.0 mm 0.00 in0.0 mm
07:15 PM 56.9°F13.8°C 42.7°F5.9°C 59% 8.6 mph WNW13.8 kmh WNW 14.8 mph23.8 kmh 30.34 in1027.4 mb 0.00 in0.0 mm 0.00 in0.0 mm 0.00 in0.0 mm
07:20 PM 56.7°F13.7°C 42.5°F5.8°C 59% 8.1 mph WNW13.0 kmh WNW 15.2 mph24.5 kmh 30.34 in1027.4 mb 0.00 in0.0 mm 0.00 in0.0 mm 0.00 in0.0 mm
07:25 PM 56.6°F13.7°C 42.5°F5.8°C 59% 8.2 mph WNW13.2 kmh WNW 13.4 mph21.6 kmh 30.35 in1027.8 mb 0.00 in0.0 mm 0.00 in0.0 mm 0.00 in0.0 mm
07:30 PM 56.5°F13.6°C 42.8°F6.0°C 60% 8.5 mph NW13.7 kmh NW 13.4 mph21.6 kmh 30.35 in1027.8 mb 0.00 in0.0 mm 0.00 in0.0 mm 0.00 in0.0 mm
07:35 PM 56.4°F13.6°C 42.7°F5.9°C 60% 8.6 mph NW13.8 kmh NW 11.9 mph19.2 kmh 30.35 in1027.8 mb 0.00 in0.0 mm 0.00 in0.0 mm 0.00 in0.0 mm
07:40 PM 56.3°F13.5°C 42.6°F5.9°C 60% 8.7 mph NW14.0 kmh NW 11.4 mph18.3 kmh 30.35 in1027.8 mb 0.00 in0.0 mm 0.00 in0.0 mm 0.00 in0.0 mm
07:45 PM 56.2°F13.4°C 42.5°F5.8°C 60% 8.4 mph WNW13.5 kmh WNW 11.4 mph18.3 kmh 30.35 in1027.8 mb 0.00 in0.0 mm 0.00 in0.0 mm 0.00 in0.0 mm
07:50 PM 56.1°F13.4°C 42.8°F6.0°C 61% 7.4 mph WNW11.9 kmh WNW 12.3 mph19.8 kmh 30.35 in1027.8 mb 0.00 in0.0 mm 0.00 in0.0 mm 0.00 in0.0 mm
07:55 PM 56.1°F13.4°C 42.9°F6.1°C 61% 7.6 mph WNW12.2 kmh WNW 11.9 mph19.2 kmh 30.36 in1028.1 mb 0.00 in0.0 mm 0.00 in0.0 mm 0.00 in0.0 mm
08:00 PM 56.0°F13.3°C 42.7°F5.9°C 61% 8.1 mph WNW13.0 kmh WNW 13.0 mph20.9 kmh 30.36 in1028.1 mb 0.00 in0.0 mm 0.00 in0.0 mm 0.00 in0.0 mm
08:05 PM 55.9°F13.3°C 42.7°F5.9°C 61% 8.2 mph WNW13.2 kmh WNW 14.1 mph22.7 kmh 30.36 in1028.1 mb 0.00 in0.0 mm 0.00 in0.0 mm 0.00 in0.0 mm
08:10 PM 55.9°F13.3°C 42.7°F5.9°C 61% 8.5 mph WNW13.7 kmh WNW 13.4 mph21.6 kmh 30.36 in1028.1 mb 0.00 in0.0 mm 0.00 in0.0 mm 0.00 in0.0 mm
08:15 PM 55.9°F13.3°C 42.6°F5.9°C 61% 8.4 mph WNW13.5 kmh WNW 13.6 mph21.9 kmh 30.36 in1028.1 mb 0.00 in0.0 mm 0.00 in0.0 mm 0.00 in0.0 mm
08:20 PM 55.8°F13.2°C 42.5°F5.8°C 61% 8.1 mph W13.0 kmh W 15.9 mph25.6 kmh 30.36 in1028.1 mb 0.00 in0.0 mm 0.00 in0.0 mm 0.00 in0.0 mm
08:25 PM 55.8°F13.2°C 42.5°F5.8°C 61% 8.6 mph W13.8 kmh W 16.8 mph27.0 kmh 30.36 in1028.1 mb 0.00 in0.0 mm 0.00 in0.0 mm 0.00 in0.0 mm
08:30 PM 55.6°F13.1°C 42.6°F5.9°C 62% 10.1 mph W16.3 kmh W 14.8 mph23.8 kmh 30.36 in1028.1 mb 0.00 in0.0 mm 0.00 in0.0 mm 0.00 in0.0 mm
08:35 PM 55.6°F13.1°C 42.8°F6.0°C 62% 9.7 mph W15.6 kmh W 12.3 mph19.8 kmh 30.36 in1028.1 mb 0.00 in0.0 mm 0.00 in0.0 mm 0.00 in0.0 mm
08:40 PM 55.4°F13.0°C 42.6°F5.9°C 62% 8.7 mph W14.0 kmh W 12.3 mph19.8 kmh 30.36 in1028.1 mb 0.00 in0.0 mm 0.00 in0.0 mm 0.00 in0.0 mm
08:45 PM 55.2°F12.9°C 42.4°F5.8°C 62% 8.4 mph W13.5 kmh W 14.1 mph22.7 kmh 30.37 in1028.4 mb 0.00 in0.0 mm 0.00 in0.0 mm 0.00 in0.0 mm
08:50 PM 55.0°F12.8°C 42.5°F5.8°C 63% 7.6 mph WSW12.2 kmh WSW 13.6 mph21.9 kmh 30.37 in1028.4 mb 0.00 in0.0 mm 0.00 in0.0 mm 0.00 in0.0 mm
08:55 PM 54.8°F12.7°C 42.4°F5.8°C 63% 8.0 mph WSW12.9 kmh WSW 12.3 mph19.8 kmh 30.37 in1028.4 mb 0.00 in0.0 mm 0.00 in0.0 mm 0.00 in0.0 mm
09:00 PM 54.6°F12.6°C 42.3°F5.7°C 63% 9.2 mph WSW14.8 kmh WSW 13.6 mph21.9 kmh 30.37 in1028.4 mb 0.00 in0.0 mm 0.00 in0.0 mm 0.00 in0.0 mm
09:05 PM 54.3°F12.4°C 42.4°F5.8°C 64% 9.6 mph WSW15.4 kmh WSW 16.3 mph26.2 kmh 30.37 in1028.4 mb 0.00 in0.0 mm 0.00 in0.0 mm 0.00 in0.0 mm
09:10 PM 54.2°F12.3°C 42.3°F5.7°C 64% 10.7 mph WSW17.2 kmh WSW 15.9 mph25.6 kmh 30.37 in1028.4 mb 0.00 in0.0 mm 0.00 in0.0 mm 0.00 in0.0 mm
09:15 PM 54.1°F12.3°C 42.2°F5.7°C 64% 10.9 mph WSW17.5 kmh WSW 16.8 mph27.0 kmh 30.37 in1028.4 mb 0.00 in0.0 mm 0.00 in0.0 mm 0.00 in0.0 mm
09:20 PM 54.1°F12.3°C 42.2°F5.7°C 64% 11.4 mph WSW18.3 kmh WSW 16.3 mph26.2 kmh 30.37 in1028.4 mb 0.00 in0.0 mm 0.00 in0.0 mm 0.00 in0.0 mm
09:25 PM 54.1°F12.3°C 42.2°F5.7°C 64% 11.5 mph W18.5 kmh W 14.8 mph23.8 kmh 30.37 in1028.4 mb 0.00 in0.0 mm 0.00 in0.0 mm 0.00 in0.0 mm
09:30 PM 54.1°F12.3°C 42.2°F5.7°C 64% 11.9 mph W19.2 kmh W 13.6 mph21.9 kmh 30.38 in1028.8 mb 0.00 in0.0 mm 0.00 in0.0 mm 0.00 in0.0 mm
09:35 PM 54.0°F12.2°C 42.1°F5.6°C 64% 11.4 mph W18.3 kmh W 14.1 mph22.7 kmh 30.38 in1028.8 mb 0.00 in0.0 mm 0.00 in0.0 mm 0.00 in0.0 mm
09:40 PM 54.0°F12.2°C 42.5°F5.8°C 65% 10.1 mph W16.3 kmh W 11.4 mph18.3 kmh 30.38 in1028.8 mb 0.00 in0.0 mm 0.00 in0.0 mm 0.00 in0.0 mm
09:45 PM 53.9°F12.2°C 42.4°F5.8°C 65% 9.6 mph W15.4 kmh W 14.5 mph23.3 kmh 30.38 in1028.8 mb 0.00 in0.0 mm 0.00 in0.0 mm 0.00 in0.0 mm
09:50 PM 53.8°F12.1°C 42.3°F5.7°C 65% 8.1 mph W13.0 kmh W 14.8 mph23.8 kmh 30.38 in1028.8 mb 0.00 in0.0 mm 0.00 in0.0 mm 0.00 in0.0 mm
09:55 PM 53.8°F12.1°C 42.3°F5.7°C 65% 8.2 mph W13.2 kmh W 13.6 mph21.9 kmh 30.38 in1028.8 mb 0.00 in0.0 mm 0.00 in0.0 mm 0.00 in0.0 mm
10:00 PM 53.9°F12.2°C 42.4°F5.8°C 65% 8.7 mph W14.0 kmh W 13.6 mph21.9 kmh 30.38 in1028.8 mb 0.00 in0.0 mm 0.00 in0.0 mm 0.00 in0.0 mm
10:05 PM 53.8°F12.1°C 42.3°F5.7°C 65% 8.7 mph W14.0 kmh W 15.9 mph25.6 kmh 30.38 in1028.8 mb 0.00 in0.0 mm 0.00 in0.0 mm 0.00 in0.0 mm
10:10 PM 53.8°F12.1°C 42.3°F5.7°C 65% 8.5 mph W13.7 kmh W 15.2 mph24.5 kmh 30.38 in1028.8 mb 0.00 in0.0 mm 0.00 in0.0 mm 0.00 in0.0 mm
10:15 PM 53.9°F12.2°C 42.4°F5.8°C 65% 8.7 mph W14.0 kmh W 15.9 mph25.6 kmh 30.38 in1028.8 mb 0.00 in0.0 mm 0.00 in0.0 mm 0.00 in0.0 mm
10:20 PM 53.9°F12.2°C 42.4°F5.8°C 65% 9.2 mph W14.8 kmh W 14.1 mph22.7 kmh 30.38 in1028.8 mb 0.00 in0.0 mm 0.00 in0.0 mm 0.00 in0.0 mm
10:25 PM 53.8°F12.1°C 42.3°F5.7°C 65% 9.2 mph W14.8 kmh W 16.8 mph27.0 kmh 30.39 in1029.1 mb 0.00 in0.0 mm 0.00 in0.0 mm 0.00 in0.0 mm
10:30 PM 53.8°F12.1°C 42.3°F5.7°C 65% 9.2 mph W14.8 kmh W 15.2 mph24.5 kmh 30.39 in1029.1 mb 0.00 in0.0 mm 0.00 in0.0 mm 0.00 in0.0 mm
10:35 PM 53.8°F12.1°C 42.3°F5.7°C 65% 9.2 mph W14.8 kmh W 13.6 mph21.9 kmh 30.39 in1029.1 mb 0.00 in0.0 mm 0.00 in0.0 mm 0.00 in0.0 mm
10:40 PM 53.8°F12.1°C 42.3°F5.7°C 65% 9.2 mph W14.8 kmh W 15.9 mph25.6 kmh 30.39 in1029.1 mb 0.00 in0.0 mm 0.00 in0.0 mm 0.00 in0.0 mm
10:45 PM 53.8°F12.1°C 42.3°F5.7°C 65% 9.1 mph W14.6 kmh W 13.6 mph21.9 kmh 30.39 in1029.1 mb 0.00 in0.0 mm 0.00 in0.0 mm 0.00 in0.0 mm
10:50 PM 53.8°F12.1°C 42.3°F5.7°C 65% 8.7 mph W14.0 kmh W 15.7 mph25.3 kmh 30.39 in1029.1 mb 0.00 in0.0 mm 0.00 in0.0 mm 0.00 in0.0 mm
10:55 PM 54.0°F12.2°C 42.5°F5.8°C 65% 8.7 mph W14.0 kmh W 15.7 mph25.3 kmh 30.39 in1029.1 mb 0.00 in0.0 mm 0.00 in0.0 mm 0.00 in0.0 mm
11:00 PM 54.0°F12.2°C 42.1°F5.6°C 64% 8.5 mph W13.7 kmh W 13.0 mph20.9 kmh 30.39 in1029.1 mb 0.00 in0.0 mm 0.00 in0.0 mm 0.00 in0.0 mm
11:05 PM 54.0°F12.2°C 42.1°F5.6°C 64% 8.5 mph W13.7 kmh W 15.9 mph25.6 kmh 30.39 in1029.1 mb 0.00 in0.0 mm 0.00 in0.0 mm 0.00 in0.0 mm
11:10 PM 54.0°F12.2°C 42.1°F5.6°C 64% 8.5 mph W13.7 kmh W 15.7 mph25.3 kmh 30.40 in1029.5 mb 0.00 in0.0 mm 0.00 in0.0 mm 0.00 in0.0 mm
11:15 PM 54.1°F12.3°C 42.2°F5.7°C 64% 8.4 mph W13.5 kmh W 12.5 mph20.1 kmh 30.40 in1029.5 mb 0.00 in0.0 mm 0.00 in0.0 mm 0.00 in0.0 mm
11:20 PM 54.1°F12.3°C 42.2°F5.7°C 64% 8.1 mph W13.0 kmh W 12.3 mph19.8 kmh 30.40 in1029.5 mb 0.00 in0.0 mm 0.00 in0.0 mm 0.00 in0.0 mm
11:25 PM 54.1°F12.3°C 42.2°F5.7°C 64% 7.7 mph W12.4 kmh W 11.9 mph19.2 kmh 30.40 in1029.5 mb 0.00 in0.0 mm 0.00 in0.0 mm 0.00 in0.0 mm
11:30 PM 54.1°F12.3°C 42.2°F5.7°C 64% 6.5 mph W10.5 kmh W 8.7 mph14.0 kmh 30.40 in1029.5 mb 0.00 in0.0 mm 0.00 in0.0 mm 0.00 in0.0 mm
11:35 PM 54.0°F12.2°C 42.1°F5.6°C 64% 6.3 mph WSW10.1 kmh WSW 10.3 mph16.6 kmh 30.40 in1029.5 mb 0.00 in0.0 mm 0.00 in0.0 mm 0.00 in0.0 mm
11:40 PM 53.7°F12.1°C 42.0°F5.6°C 64% 5.8 mph WSW9.3 kmh WSW 12.5 mph20.1 kmh 30.41 in1029.8 mb 0.00 in0.0 mm 0.00 in0.0 mm 0.00 in0.0 mm
11:45 PM 53.4°F11.9°C 41.9°F5.5°C 65% 6.5 mph WSW10.5 kmh WSW 13.0 mph20.9 kmh 30.41 in1029.8 mb 0.00 in0.0 mm 0.00 in0.0 mm 0.00 in0.0 mm
11:50 PM 53.2°F11.8°C 41.9°F5.5°C 66% 8.5 mph WSW13.7 kmh WSW 13.0 mph20.9 kmh 30.41 in1029.8 mb 0.00 in0.0 mm 0.00 in0.0 mm 0.00 in0.0 mm
11:55 PM 53.1°F11.7°C 42.0°F5.6°C 66% 8.5 mph WSW13.7 kmh WSW 14.5 mph23.3 kmh 30.41 in1029.8 mb 0.00 in0.0 mm 0.00 in0.0 mm 0.00 in0.0 mm